Time;durP1;ratioP1;P1;durP2;ratioP2;P2;SDS_P1;SDS_P2;PMS_P1;PMS_P2;Temp;Humidity;BMP_temperature;BMP_pressure;BME280_temperature;BME280_humidity;BME280_pressure;Samples;Min_cycle;Max_cycle;Signal;HPM_P1;HPM_P2
2022/10/21 00:01:38;;;;;;;25.42;14.80;;;12.60;99.90;;;11.24;100.00;100357.13;4927585;29;20035;-81
2022/10/21 00:04:04;;;;;;;25.17;14.02;;;12.60;99.90;;;11.33;100.00;100366.66;4939704;29;20035;-81
2022/10/21 00:06:31;;;;;;;22.60;14.23;;;12.60;99.90;;;11.34;100.00;100370.25;4938984;29;20043;-80
2022/10/21 00:08:57;;;;;;;23.02;13.93;;;12.70;99.90;;;11.28;100.00;100358.31;4929649;29;20087;-84
2022/10/21 00:11:22;;;;;;;23.33;14.13;;;12.60;99.90;;;11.24;100.00;100362.56;4923156;29;20055;-82
2022/10/21 00:13:48;;;;;;;19.67;13.52;;;12.60;99.90;;;11.16;100.00;100360.97;4926932;29;20494;-82
2022/10/21 00:16:18;;;;;;;22.15;13.32;;;12.50;99.90;;;11.13;100.00;100366.03;4924437;29;20050;-83
2022/10/21 00:18:46;;;;;;;21.20;13.63;;;12.50;99.90;;;11.25;100.00;100368.84;4924836;29;20032;-81
2022/10/21 00:21:19;;;;;;;24.50;14.65;;;12.60;99.90;;;11.21;100.00;100360.31;4925514;29;20028;-81
2022/10/21 00:23:46;;;;;;;20.33;13.98;;;12.50;99.90;;;11.28;100.00;100352.03;4928368;29;20039;-81
2022/10/21 00:26:13;;;;;;;22.08;13.18;;;12.60;99.90;;;11.23;100.00;100336.34;4929721;29;20027;-81
2022/10/21 00:28:40;;;;;;;21.57;13.60;;;12.60;99.90;;;11.40;100.00;100343.88;4928293;28;20109;-80
2022/10/21 00:31:09;;;;;;;19.55;12.43;;;12.70;99.90;;;11.51;100.00;100340.38;4925161;29;20537;-81
2022/10/21 00:33:35;;;;;;;21.92;12.52;;;12.80;99.90;;;11.50;100.00;100327.78;4927182;29;20035;-80
2022/10/21 00:36:02;;;;;;;18.55;12.55;;;12.90;99.90;;;11.44;100.00;100331.47;4922139;29;20043;-80
2022/10/21 00:38:30;;;;;;;20.17;11.75;;;12.80;99.90;;;11.47;100.00;100344.66;4929339;29;20046;-81
2022/10/21 00:40:56;;;;;;;23.17;13.27;;;12.80;99.90;;;11.35;100.00;100329.03;4926355;29;20086;-82
2022/10/21 00:43:25;;;;;;;22.67;14.00;;;12.80;99.90;;;11.23;100.00;100325.41;4921613;29;20036;-81
2022/10/21 00:46:02;;;;;;;21.33;13.50;;;12.60;99.90;;;11.13;100.00;100327.81;4923632;29;20035;-80
2022/10/21 00:48:48;;;;;;;22.35;13.40;;;12.50;99.90;;;11.04;100.00;100322.69;4924643;29;20027;-81
2022/10/21 00:51:17;;;;;;;21.88;13.02;;;12.40;99.90;;;11.07;100.00;100322.22;4921729;29;20067;-81
2022/10/21 00:53:48;;;;;;;23.25;12.98;;;12.40;99.90;;;11.13;100.00;100305.97;4928221;29;20055;-80
2022/10/21 00:56:24;;;;;;;26.02;13.98;;;12.40;99.90;;;11.21;100.00;100311.97;4924239;29;20510;-80
2022/10/21 00:58:54;;;;;;;21.80;12.55;;;12.50;99.90;;;11.23;100.00;100317.22;4925301;29;20031;-80
2022/10/21 01:01:20;;;;;;;18.67;12.27;;;12.60;99.90;;;11.28;100.00;100317.34;4927383;29;20039;-81
2022/10/21 01:03:46;;;;;;;20.85;12.43;;;12.60;99.90;;;11.16;100.00;100313.75;4933025;29;20063;-81
2022/10/21 01:06:14;;;;;;;19.38;13.23;;;12.60;99.90;;;11.12;100.00;100305.16;4926612;28;20043;-81
2022/10/21 01:08:40;;;;;;;18.42;11.98;;;12.50;99.90;;;11.02;100.00;100283.88;4926688;29;20139;-81
2022/10/21 01:11:14;;;;;;;22.60;12.02;;;12.50;99.90;;;11.03;100.00;100293.72;4922028;29;20411;-82
2022/10/21 01:13:59;;;;;;;22.38;13.05;;;12.40;99.90;;;11.07;100.00;100289.47;4928684;29;20115;-81
2022/10/21 01:16:35;;;;;;;19.95;12.05;;;12.50;99.90;;;11.05;100.00;100299.78;4927252;29;20035;-82
2022/10/21 01:19:35;;;;;;;19.83;12.40;;;12.40;99.90;;;11.05;100.00;100282.59;4926337;29;20039;-81
2022/10/21 01:22:46;;;;;;;19.10;12.40;;;12.40;99.90;;;11.17;100.00;100279.91;4924672;29;20395;-82
2022/10/21 01:25:52;;;;;;;24.67;12.20;;;12.50;99.90;;;11.39;100.00;100282.13;4923844;29;20058;-79
2022/10/21 01:28:42;;;;;;;18.35;11.43;;;12.60;99.90;;;11.42;100.00;100276.22;4925894;29;20131;-81
2022/10/21 01:31:32;;;;;;;18.92;11.75;;;12.70;99.90;;;11.46;100.00;100274.69;4925783;29;20035;-82
2022/10/21 01:34:10;;;;;;;19.60;11.00;;;12.80;99.90;;;11.36;100.00;100272.50;4923586;28;20079;-82
2022/10/21 01:36:55;;;;;;;17.00;11.73;;;12.80;99.90;;;11.40;100.00;100281.91;4926047;29;20111;-82
2022/10/21 01:39:43;;;;;;;18.52;11.25;;;12.80;99.90;;;11.32;100.00;100283.06;4926654;28;20044;-82
2022/10/21 01:42:24;;;;;;;15.50;10.85;;;12.70;99.90;;;11.24;100.00;100264.28;4919990;29;20444;-83
2022/10/21 01:45:13;;;;;;;17.58;11.10;;;12.70;99.90;;;11.22;100.00;100266.41;4931906;28;20039;-82
2022/10/21 01:48:15;;;;;;;18.17;11.43;;;12.60;99.90;;;11.16;100.00;100256.41;4950728;28;20030;-82
2022/10/21 01:50:49;;;;;;;15.95;10.75;;;12.60;99.90;;;11.21;100.00;100253.81;4925412;29;20102;-82
2022/10/21 01:53:17;;;;;;;14.57;10.63;;;12.50;99.90;;;11.25;100.00;100233.16;4923720;29;20040;-81
2022/10/21 01:55:45;;;;;;;15.20;10.03;;;12.60;99.90;;;11.25;100.00;100222.25;4923125;28;20051;-82
2022/10/21 01:58:18;;;;;;;19.60;10.00;;;12.70;99.90;;;11.37;100.00;100225.03;4924281;28;20067;-81
2022/10/21 02:00:48;;;;;;;15.98;10.00;;;12.70;99.90;;;11.43;100.00;100226.81;4927889;29;20513;-82
2022/10/21 02:03:25;;;;;;;15.35;10.10;;;12.70;99.90;;;11.42;100.00;100216.13;4921886;28;20063;-82
2022/10/21 02:05:51;;;;;;;14.95;9.77;;;12.80;99.90;;;11.40;100.00;100212.78;4922504;28;20036;-82
2022/10/21 02:08:17;;;;;;;18.20;9.50;;;12.80;99.90;;;11.49;100.00;100214.13;4926346;29;20071;-82
2022/10/21 02:10:49;;;;;;;14.55;9.48;;;12.90;99.90;;;11.58;100.00;100231.84;4927758;28;20039;-80
2022/10/21 02:13:24;;;;;;;14.05;9.25;;;12.90;99.90;;;11.70;100.00;100245.53;4925764;29;20058;-80
2022/10/21 02:15:56;;;;;;;16.13;9.63;;;13.00;99.90;;;11.69;100.00;100245.78;4923596;28;20091;-80
2022/10/21 02:18:24;;;;;;;15.40;9.30;;;13.00;99.90;;;11.50;100.00;100218.53;4924418;28;20135;-80
2022/10/21 02:21:07;;;;;;;17.85;10.10;;;13.00;99.90;;;11.57;100.00;100238.38;4923055;29;20035;-79
2022/10/21 02:24:48;;;;;;;15.50;10.05;;;12.90;99.90;;;11.45;100.00;100226.59;4929809;28;20043;-80
2022/10/21 02:27:13;;;;;;;15.35;9.27;;;12.90;99.90;;;11.21;100.00;100201.94;4909072;29;20079;-81
2022/10/21 02:29:43;;;;;;;14.68;9.57;;;12.70;99.90;;;11.18;100.00;100202.41;4926900;29;20059;-81
2022/10/21 02:32:27;;;;;;;13.77;9.15;;;12.60;99.90;;;11.15;100.00;100205.59;4925768;28;20042;-81
2022/10/21 02:35:36;;;;;;;14.95;9.55;;;12.60;99.90;;;11.11;100.00;100205.22;4923665;28;20039;-81
2022/10/21 02:38:21;;;;;;;16.92;10.00;;;12.50;99.90;;;11.03;100.00;100191.91;4925387;29;20038;-81
2022/10/21 02:41:08;;;;;;;15.35;9.95;;;12.40;99.90;;;11.01;100.00;100192.13;4926998;29;20040;-82
2022/10/21 02:44:03;;;;;;;18.08;11.07;;;12.40;99.90;;;10.98;100.00;100194.47;4925710;29;20042;-80
2022/10/21 02:46:40;;;;;;;15.40;9.75;;;12.40;99.90;;;10.97;100.00;100196.38;4925896;29;20027;-81
2022/10/21 02:49:07;;;;;;;15.68;9.30;;;12.40;99.90;;;10.99;100.00;100213.34;4928421;28;20373;-81
2022/10/21 02:51:34;;;;;;;13.93;9.65;;;12.40;99.90;;;11.00;100.00;100204.09;4929809;29;20023;-80
2022/10/21 02:54:00;;;;;;;11.52;8.75;;;12.40;99.90;;;11.03;100.00;100195.44;4924620;29;20566;-80
2022/10/21 02:56:26;;;;;;;12.20;9.50;;;12.40;99.90;;;10.98;100.00;100189.00;4923825;28;20131;-80
2022/10/21 02:58:53;;;;;;;16.80;9.93;;;12.40;99.90;;;10.93;100.00;100185.06;4924567;29;20091;-80
2022/10/21 03:01:19;;;;;;;12.82;9.30;;;12.30;99.90;;;10.85;100.00;100179.09;4929957;29;20036;-81
2022/10/21 03:03:44;;;;;;;14.25;9.80;;;12.30;99.90;;;10.84;100.00;100180.16;4929365;29;20043;-80
2022/10/21 03:06:10;;;;;;;15.95;9.65;;;12.30;99.90;;;10.80;100.00;100171.63;4923180;29;20477;-81
2022/10/21 03:08:36;;;;;;;16.65;10.52;;;12.30;99.90;;;10.80;100.00;100168.91;4924890;29;20043;-81
2022/10/21 03:11:02;;;;;;;16.23;11.05;;;12.30;99.90;;;10.85;100.00;100169.03;4924091;29;20787;-81
2022/10/21 03:13:28;;;;;;;16.02;10.05;;;12.20;99.90;;;10.84;100.00;100171.97;4930373;28;20558;-82
2022/10/21 03:15:54;;;;;;;14.25;10.85;;;12.20;99.90;;;10.80;100.00;100168.91;4934815;29;20111;-81
2022/10/21 03:18:19;;;;;;;13.30;10.15;;;12.20;99.90;;;10.77;100.00;100170.19;4931385;29;20031;-82
2022/10/21 03:20:50;;;;;;;17.35;10.00;;;12.20;99.90;;;10.76;100.00;100176.69;4909063;29;20028;-81
2022/10/21 03:23:18;;;;;;;13.32;10.55;;;12.20;99.90;;;10.74;100.00;100176.09;4922552;29;20038;-82
2022/10/21 03:25:44;;;;;;;16.35;10.50;;;12.20;99.90;;;10.73;100.00;100170.84;4929000;29;20037;-82
2022/10/21 03:28:11;;;;;;;16.88;11.00;;;12.10;99.90;;;10.65;100.00;100159.22;4932134;29;20522;-80
2022/10/21 03:30:37;;;;;;;18.05;11.23;;;12.10;99.90;;;10.62;100.00;100137.03;4927994;29;20091;-80
2022/10/21 03:33:03;;;;;;;18.65;11.55;;;12.10;99.90;;;10.66;100.00;100140.97;4926294;29;20039;-79
2022/10/21 03:35:29;;;;;;;15.07;10.27;;;12.10;99.90;;;10.62;100.00;100131.56;4925510;29;20034;-80
2022/10/21 03:37:55;;;;;;;16.92;10.40;;;12.10;99.90;;;10.72;100.00;100142.75;4928245;29;20047;-79
2022/10/21 03:40:22;;;;;;;16.05;11.43;;;12.10;99.90;;;10.74;100.00;100142.50;4915176;29;20032;-80
2022/10/21 03:42:49;;;;;;;16.67;10.75;;;12.20;99.90;;;10.82;100.00;100141.38;4926758;29;20095;-81
2022/10/21 03:45:15;;;;;;;19.98;10.65;;;12.20;99.90;;;10.81;100.00;100132.38;4924096;29;20506;-81
2022/10/21 03:47:41;;;;;;;15.43;10.18;;;12.30;99.90;;;10.86;100.00;100137.94;4925658;29;20475;-82
2022/10/21 03:50:07;;;;;;;15.63;9.57;;;12.30;99.90;;;10.82;100.00;100133.19;4930615;29;20066;-82
2022/10/21 03:52:33;;;;;;;14.88;10.23;;;12.30;99.90;;;10.79;100.00;100127.13;4927045;29;20115;-82
2022/10/21 03:54:58;;;;;;;14.77;9.88;;;12.30;99.90;;;10.73;100.00;100122.59;4925684;29;20027;-83
2022/10/21 03:57:24;;;;;;;16.98;10.18;;;12.30;99.90;;;10.85;100.00;100143.63;4926627;29;20463;-82
2022/10/21 03:59:50;;;;;;;15.98;10.18;;;12.30;99.90;;;10.77;100.00;100131.16;4932121;29;20035;-83
2022/10/21 04:02:16;;;;;;;15.40;9.75;;;12.30;99.90;;;10.87;100.00;100147.81;4928063;29;20036;-83
2022/10/21 04:04:42;;;;;;;17.23;9.82;;;12.30;99.90;;;10.84;100.00;100145.53;4928009;29;20041;-83
2022/10/21 04:07:07;;;;;;;15.55;10.25;;;12.20;99.90;;;10.84;100.00;100131.91;4928021;28;20083;-82
2022/10/21 04:09:33;;;;;;;14.90;10.18;;;12.20;99.90;;;10.78;100.00;100117.28;4930142;29;20035;-82
2022/10/21 04:11:59;;;;;;;12.88;9.43;;;12.20;99.90;;;10.81;100.00;100124.19;4931455;29;20090;-83
2022/10/21 04:14:25;;;;;;;14.43;9.43;;;12.30;99.90;;;10.86;100.00;100127.03;4925666;29;20032;-83
2022/10/21 04:16:50;;;;;;;14.20;9.82;;;12.30;99.90;;;10.83;100.00;100122.03;4926498;29;20290;-82
2022/10/21 04:19:18;;;;;;;16.13;10.10;;;12.20;99.90;;;10.76;100.00;100122.13;4929934;29;20058;-82
2022/10/21 04:21:45;;;;;;;15.43;10.20;;;12.20;99.90;;;10.71;100.00;100113.81;4926058;28;20031;-82
2022/10/21 04:24:12;;;;;;;15.90;10.38;;;12.20;99.90;;;10.65;100.00;100092.91;4928996;29;20066;-82
2022/10/21 04:26:37;;;;;;;17.15;10.27;;;12.20;99.90;;;10.77;100.00;100096.50;4925355;29;20036;-82
2022/10/21 04:29:04;;;;;;;16.95;10.85;;;12.20;99.90;;;10.91;100.00;100102.59;4926578;29;20535;-83
2022/10/21 04:31:29;;;;;;;22.00;12.23;;;12.30;99.90;;;10.85;100.00;100099.97;4924069;29;20105;-81
2022/10/21 04:33:55;;;;;;;16.25;10.88;;;12.30;99.90;;;10.90;100.00;100091.94;4924790;29;21984;-79
2022/10/21 04:36:21;;;;;;;17.52;11.43;;;12.30;99.90;;;10.87;100.00;100085.03;4925052;29;20102;-80
2022/10/21 04:38:47;;;;;;;21.40;12.85;;;12.30;99.90;;;10.93;100.00;100097.75;4927598;29;20032;-80
2022/10/21 04:41:13;;;;;;;20.63;12.50;;;12.40;99.90;;;10.97;100.00;100095.41;4925153;29;20106;-80
2022/10/21 04:43:38;;;;;;;19.25;13.18;;;12.40;99.90;;;10.91;100.00;100086.22;4926229;29;20059;-79
2022/10/21 04:46:15;;;;;;;19.88;12.70;;;12.30;99.90;;;10.86;100.00;100088.84;4921585;29;20054;-83
2022/10/21 04:48:42;;;;;;;22.55;12.63;;;12.30;99.90;;;10.73;100.00;100087.13;4921201;29;20130;-81
2022/10/21 04:51:08;;;;;;;22.25;12.93;;;12.20;99.90;;;10.78;100.00;100092.72;4926662;28;20092;-82
2022/10/21 04:53:34;;;;;;;19.65;12.80;;;12.20;99.90;;;10.91;100.00;100104.53;4927768;29;20075;-82
2022/10/21 04:56:00;;;;;;;20.95;12.65;;;12.30;99.90;;;10.90;100.00;100105.59;4925654;28;20032;-81
2022/10/21 04:58:25;;;;;;;20.15;12.73;;;12.30;99.90;;;10.95;100.00;100097.53;4926777;28;20035;-83
2022/10/21 05:00:52;;;;;;;22.90;13.70;;;12.30;99.90;;;10.98;100.00;100099.78;4925503;29;20038;-84
2022/10/21 05:03:18;;;;;;;23.77;12.70;;;12.30;99.90;;;10.91;100.00;100079.97;4920237;29;20093;-83
2022/10/21 05:05:47;;;;;;;25.00;14.75;;;12.40;99.90;;;11.00;100.00;100077.69;4926030;29;20035;-83
2022/10/21 05:08:13;;;;;;;26.45;15.13;;;12.40;99.90;;;10.88;100.00;100064.88;4928265;28;20059;-84
2022/10/21 05:10:38;;;;;;;23.70;13.38;;;12.30;99.90;;;10.90;100.00;100059.19;4925427;29;20031;-82
2022/10/21 05:13:05;;;;;;;22.33;14.05;;;12.30;99.90;;;11.07;100.00;100064.81;4923466;28;20036;-80
2022/10/21 05:15:32;;;;;;;23.33;14.60;;;12.40;99.90;;;11.19;100.00;100070.28;4925442;29;20680;-82
2022/10/21 05:17:58;;;;;;;22.02;13.98;;;12.50;99.90;;;11.18;100.00;100054.97;4923923;28;20031;-81
2022/10/21 05:20:24;;;;;;;25.67;14.05;;;12.50;99.90;;;11.06;100.00;100041.31;4933546;28;20032;-80
2022/10/21 05:22:51;;;;;;;22.08;13.95;;;12.50;99.90;;;11.06;100.00;100058.50;4930430;29;20051;-80
2022/10/21 05:25:17;;;;;;;21.70;13.95;;;12.40;99.90;;;10.96;100.00;100055.53;4933010;29;20034;-80
2022/10/21 05:27:43;;;;;;;21.08;13.63;;;12.40;99.90;;;10.71;100.00;100034.69;4936381;28;20031;-80
2022/10/21 05:30:10;;;;;;;24.83;13.20;;;12.20;99.90;;;10.65;100.00;100044.63;4929533;29;20399;-80
2022/10/21 05:32:36;;;;;;;24.77;12.85;;;12.10;99.90;;;10.50;100.00;100039.59;4929904;29;20514;-80
2022/10/21 05:35:02;;;;;;;20.30;12.90;;;11.90;99.90;;;10.31;100.00;100035.22;4931026;29;20032;-79
2022/10/21 05:37:28;;;;;;;17.42;12.68;;;11.80;99.90;;;10.24;100.00;100042.66;4925966;29;20880;-78
2022/10/21 05:39:54;;;;;;;22.92;13.55;;;11.70;99.90;;;9.96;100.00;100041.31;4932161;28;20086;-80
2022/10/21 05:42:20;;;;;;;21.88;13.02;;;11.50;99.90;;;9.88;100.00;100053.34;4926495;29;20036;-79
2022/10/21 05:44:45;;;;;;;22.58;14.65;;;11.40;99.90;;;9.72;100.00;100052.06;4929724;29;20082;-81
2022/10/21 05:47:11;;;;;;;26.00;15.20;;;11.20;99.90;;;9.69;100.00;100053.34;4912810;29;20313;-80
2022/10/21 05:49:37;;;;;;;27.92;16.05;;;11.20;99.90;;;9.68;100.00;100046.25;4924027;29;20042;-81
2022/10/21 05:52:03;;;;;;;32.20;16.98;;;11.20;99.90;;;9.70;100.00;100043.28;4929456;29;20039;-79
2022/10/21 05:54:29;;;;;;;37.65;18.77;;;11.20;99.90;;;9.75;100.00;100057.03;4925383;29;20468;-79
2022/10/21 05:56:57;;;;;;;39.15;19.45;;;11.20;99.90;;;9.74;100.00;100058.09;4924745;29;20110;-79
2022/10/21 05:59:24;;;;;;;36.30;19.58;;;11.20;99.90;;;9.92;100.00;100073.63;4925438;29;20039;-79
2022/10/21 06:01:50;;;;;;;33.85;20.70;;;11.30;99.90;;;10.05;100.00;100068.03;4926650;29;20046;-79
2022/10/21 06:04:16;;;;;;;40.38;20.17;;;11.50;99.90;;;10.18;100.00;100060.75;4928221;29;20031;-80
2022/10/21 06:06:41;;;;;;;40.92;19.90;;;11.60;99.90;;;10.07;100.00;100032.34;4921922;29;20052;-80
2022/10/21 06:09:07;;;;;;;40.95;21.48;;;11.60;99.90;;;10.30;100.00;100053.47;4923671;28;20517;-79
2022/10/21 06:11:33;;;;;;;42.47;21.30;;;11.70;99.90;;;10.38;100.00;100055.06;4924415;29;20518;-79
2022/10/21 06:13:59;;;;;;;40.95;21.83;;;11.80;99.90;;;10.35;100.00;100050.88;4922747;28;20112;-79
2022/10/21 06:16:25;;;;;;;46.42;21.60;;;11.80;99.90;;;10.33;100.00;100053.00;4922651;28;20038;-79
2022/10/21 06:18:51;;;;;;;43.35;21.85;;;11.80;99.90;;;10.35;100.00;100060.97;4926718;29;20050;-77
2022/10/21 06:21:16;;;;;;;42.80;22.20;;;11.80;99.90;;;10.27;100.00;100056.66;4929066;29;20554;-77
2022/10/21 06:23:42;;;;;;;40.42;22.13;;;11.80;99.90;;;10.27;100.00;100053.09;4925729;29;20039;-76
2022/10/21 06:26:14;;;;;;;44.78;22.30;;;11.70;99.90;;;10.33;100.00;100060.34;4925093;29;20032;-76
2022/10/21 06:28:42;;;;;;;42.58;21.77;;;11.80;99.90;;;10.46;100.00;100071.13;4923967;29;20055;-76
2022/10/21 06:31:14;;;;;;;44.28;21.08;;;11.80;99.90;;;10.57;100.00;100068.66;4932688;29;20482;-76
2022/10/21 06:33:41;;;;;;;43.70;21.02;;;11.90;99.90;;;10.60;100.00;100062.75;4932627;28;20484;-78
2022/10/21 06:36:07;;;;;;;38.50;20.35;;;12.00;99.90;;;10.67;100.00;100068.97;4927155;28;20038;-75
2022/10/21 06:38:33;;;;;;;36.78;19.52;;;12.10;99.90;;;10.72;100.00;100060.06;4930521;29;20027;-77
2022/10/21 06:41:06;;;;;;;37.17;20.27;;;12.10;99.90;;;10.77;100.00;100065.69;4933639;28;20093;-77
2022/10/21 06:43:32;;;;;;;34.20;19.58;;;12.20;99.90;;;10.83;100.00;100070.19;4935947;29;20036;-76
2022/10/21 06:46:04;;;;;;;33.83;18.98;;;12.20;99.90;;;10.86;100.00;100071.63;4927805;28;20079;-75
2022/10/21 06:48:31;;;;;;;33.42;17.65;;;12.30;99.90;;;10.89;100.00;100071.19;4926084;29;20509;-77
2022/10/21 06:51:07;;;;;;;30.60;16.75;;;12.30;99.90;;;11.02;100.00;100070.97;4927870;29;20027;-75
2022/10/21 06:53:34;;;;;;;35.65;17.80;;;12.40;99.90;;;11.03;100.00;100080.81;4925654;29;20399;-76
2022/10/21 06:56:04;;;;;;;32.60;18.70;;;12.40;99.90;;;11.06;100.00;100082.25;4924962;28;20035;-76
2022/10/21 06:58:30;;;;;;;31.65;17.17;;;12.50;99.90;;;11.13;100.00;100090.31;4929463;28;20123;-76
2022/10/21 07:00:57;;;;;;;30.15;18.05;;;12.50;99.90;;;11.17;100.00;100088.81;4924102;29;20111;-76
2022/10/21 07:03:23;;;;;;;32.95;17.92;;;12.60;99.90;;;11.20;100.00;100093.78;4924799;29;20443;-77
2022/10/21 07:05:48;;;;;;;32.15;17.20;;;12.60;99.90;;;11.29;100.00;100111.50;4922631;29;20063;-77
2022/10/21 07:08:15;;;;;;;30.85;17.40;;;12.70;99.90;;;11.23;100.00;100113.25;4925340;28;20055;-76
2022/10/21 07:10:43;;;;;;;31.58;18.05;;;12.70;99.90;;;11.25;100.00;100113.03;4932979;29;20040;-75
2022/10/21 07:13:11;;;;;;;30.10;17.67;;;12.70;99.90;;;11.19;100.00;100101.13;4929201;28;20035;-76
2022/10/21 07:15:36;;;;;;;25.40;16.00;;;12.70;99.90;;;11.34;100.00;100116.25;4929331;29;20027;-79
2022/10/21 07:18:02;;;;;;;26.30;15.73;;;12.70;99.90;;;11.47;100.00;100110.56;4931172;28;20024;-76
2022/10/21 07:20:28;;;;;;;25.35;14.07;;;12.90;99.90;;;11.70;100.00;100113.56;4920871;29;20062;-75
2022/10/21 07:22:54;;;;;;;22.60;13.43;;;13.00;99.90;;;11.82;100.00;100100.72;4925866;29;20135;-75
2022/10/21 07:25:19;;;;;;;20.58;11.90;;;13.20;99.90;;;11.91;100.00;100092.97;4923173;29;20038;-76
2022/10/21 07:27:47;;;;;;;18.85;12.35;;;13.30;99.90;;;12.02;100.00;100110.47;4924923;28;20039;-77
2022/10/21 07:30:13;;;;;;;;;;;13.40;99.90;;;11.92;100.00;100087.25;4925968;29;20039;-76
2022/10/21 07:32:39;;;;;;;17.23;10.65;;;13.40;99.90;;;11.99;100.00;100100.81;4924010;28;19919;-76
2022/10/21 07:35:05;;;;;;;17.10;11.32;;;13.40;99.90;;;11.92;100.00;100090.00;4922483;29;20028;-76
2022/10/21 07:37:31;;;;;;;15.57;10.40;;;13.40;99.90;;;12.06;100.00;100100.72;4927557;29;20042;-76
2022/10/21 07:39:57;;;;;;;19.98;10.75;;;13.50;99.90;;;12.08;100.00;100112.25;4926765;29;20031;-76
2022/10/21 07:42:23;;;;;;;16.60;10.70;;;13.50;99.90;;;12.16;100.00;100111.88;4925889;29;20318;-77
2022/10/21 07:44:56;;;;;;;18.35;10.98;;;13.60;99.90;;;12.20;100.00;100106.75;4925132;29;20506;-76
2022/10/21 07:47:22;;;;;;;22.55;11.15;;;13.60;99.90;;;12.27;100.00;100117.56;4922349;29;20035;-77
2022/10/21 07:49:47;;;;;;;18.30;10.57;;;13.70;99.90;;;12.35;100.00;100117.19;4927323;29;20383;-77
2022/10/21 07:52:13;;;;;;;15.07;9.70;;;13.70;99.90;;;12.42;100.00;100109.66;4910980;29;20064;-77
2022/10/21 07:54:39;;;;;;;13.02;9.13;;;13.80;99.90;;;12.50;100.00;100108.47;4923845;29;20039;-77
2022/10/21 07:57:05;;;;;;;15.15;8.85;;;13.90;99.90;;;12.55;100.00;100100.34;4926132;29;20032;-76
2022/10/21 07:59:30;;;;;;;15.05;8.35;;;13.90;99.90;;;12.64;100.00;100089.84;4927033;29;20032;-75
2022/10/21 08:01:56;;;;;;;12.77;8.70;;;14.00;99.90;;;12.77;100.00;100092.31;4924949;29;20077;-80
2022/10/21 08:04:28;;;;;;;14.30;8.20;;;14.20;99.90;;;12.90;100.00;100082.13;4928490;28;20058;-80
2022/10/21 08:06:55;;;;;;;16.27;8.68;;;14.30;99.90;;;12.89;100.00;100064.03;4923580;29;20036;-80
2022/10/21 08:09:21;;;;;;;13.27;8.27;;;14.40;99.90;;;13.11;100.00;100082.47;4935140;29;20506;-79
2022/10/21 08:11:47;;;;;;;14.18;8.20;;;14.50;99.90;;;13.33;100.00;100085.31;4926716;29;20530;-79
2022/10/21 08:14:14;;;;;;;11.75;7.65;;;14.70;99.90;;;13.47;100.00;100096.78;4907336;29;20042;-77
2022/10/21 08:16:40;;;;;;;13.80;7.32;;;14.90;99.90;;;13.51;100.00;100089.72;4923601;29;20065;-78
2022/10/21 08:19:08;;;;;;;11.70;7.03;;;14.90;99.90;;;13.67;100.00;100096.31;4922494;29;20071;-76
2022/10/21 08:21:36;;;;;;;11.80;7.20;;;15.00;99.90;;;13.79;100.00;100105.25;4923878;29;20036;-77
2022/10/21 08:24:03;;;;;;;10.30;7.05;;;15.10;99.90;;;13.92;100.00;100101.31;4926083;29;20086;-79
2022/10/21 08:26:29;;;;;;;13.80;6.57;;;15.30;99.90;;;14.15;100.00;100104.91;4923722;29;20126;-79
2022/10/21 08:28:54;;;;;;;10.93;6.28;;;15.50;99.90;;;14.30;100.00;100100.69;4919549;29;20123;-79
2022/10/21 08:31:21;;;;;;;10.60;6.53;;;15.60;99.90;;;14.23;100.00;100093.50;4924280;29;20035;-80
2022/10/21 08:33:48;;;;;;;10.30;6.10;;;15.80;99.90;;;14.38;100.00;100095.59;4929441;29;20032;-79
2022/10/21 08:36:19;;;;;;;8.45;6.47;;;15.80;99.90;;;14.56;100.00;100107.34;4920858;29;20509;-77
2022/10/21 08:38:45;;;;;;;9.63;5.72;;;15.90;99.90;;;14.88;100.00;100097.56;4929145;29;20042;-78
2022/10/21 08:41:29;;;;;;;8.75;5.88;;;16.20;99.90;;;15.28;100.00;100093.53;4923963;29;20427;-80
2022/10/21 08:44:28;;;;;;;10.18;5.38;;;16.50;99.90;;;15.47;100.00;100093.13;4929608;29;20046;-80
2022/10/21 08:47:25;;;;;;;8.93;5.15;;;16.80;99.90;;;15.65;100.00;100078.13;4926932;29;20036;-80
2022/10/21 08:50:13;;;;;;;8.20;5.55;;;17.10;99.90;;;15.80;100.00;100056.25;4930930;28;20095;-79
2022/10/21 08:52:47;;;;;;;9.35;4.82;;;17.20;99.90;;;16.04;100.00;100077.00;4930274;29;20054;-78
2022/10/21 08:55:41;;;;;;;7.85;5.05;;;17.40;99.90;;;15.96;100.00;100065.44;4923959;29;20040;-79
2022/10/21 08:58:25;;;;;;;8.77;5.40;;;17.40;99.90;;;16.03;100.00;100078.91;4926608;29;20024;-77
2022/10/21 09:01:22;;;;;;;8.10;4.72;;;17.30;99.90;;;16.02;100.00;100076.44;4920828;29;20046;-77
2022/10/21 09:04:12;;;;;;;8.93;4.32;;;17.30;99.90;;;15.90;100.00;100088.47;4930176;28;20691;-76
2022/10/21 09:07:01;;;;;;;7.40;4.72;;;17.20;99.90;;;15.89;100.00;100077.75;4918730;29;20041;-77
2022/10/21 09:09:43;;;;;;;9.65;4.78;;;17.20;99.90;;;16.00;100.00;100084.16;4923918;29;20028;-79
2022/10/21 09:12:28;;;;;;;6.65;4.38;;;17.20;99.90;;;16.07;100.00;100080.06;4930536;29;20122;-78
2022/10/21 09:15:24;;;;;;;7.78;5.10;;;17.30;99.90;;;16.17;100.00;100075.69;4911130;29;20036;-79
2022/10/21 09:18:09;;;;;;;9.25;4.78;;;17.40;99.90;;;16.12;100.00;100064.66;4922492;29;20024;-78
2022/10/21 09:21:11;;;;;;;10.25;4.70;;;17.40;99.90;;;16.29;100.00;100078.22;4931886;29;20475;-78
2022/10/21 09:23:53;;;;;;;7.47;4.32;;;17.50;99.90;;;16.26;100.00;100074.06;4933592;29;20158;-79
2022/10/21 09:26:42;;;;;;;9.93;5.28;;;17.50;99.90;;;16.45;100.00;100079.94;4934322;28;20141;-78
2022/10/21 09:29:36;;;;;;;11.23;4.80;;;17.60;99.90;;;16.60;100.00;100081.91;4926455;29;20039;-79
2022/10/21 09:32:10;;;;;;;12.48;4.90;;;17.80;99.90;;;16.66;100.00;100080.81;4922736;29;20035;-79
2022/10/21 09:35:12;;;;;;;9.73;4.43;;;18.00;99.90;;;16.95;99.84;100087.75;4924543;29;20072;-76
2022/10/21 09:37:50;;;;;;;7.30;4.57;;;18.20;99.90;;;17.00;98.32;100071.28;4921866;29;20051;-78
2022/10/21 09:40:27;;;;;;;7.68;4.32;;;18.40;99.90;;;17.21;97.15;100079.53;4922540;29;20080;-78
2022/10/21 09:42:58;;;;;;;8.45;4.68;;;18.60;99.90;;;17.41;93.12;100081.50;4919520;29;20043;-82
2022/10/21 09:45:32;;;;;;;8.65;5.30;;;18.90;99.90;;;17.39;92.95;100075.44;4928291;29;20554;-80
2022/10/21 09:48:16;;;;;;;9.07;4.20;;;18.80;99.90;;;17.37;94.65;100083.97;4926405;28;20313;-79
2022/10/21 09:50:44;;;;;;;6.40;4.13;;;18.70;99.90;;;17.25;93.45;100044.84;4918026;29;20029;-81
2022/10/21 09:53:30;;;;;;;8.25;4.10;;;18.60;99.90;;;17.32;92.87;100064.66;4919372;29;20040;-79
2022/10/21 09:56:05;;;;;;;6.97;4.18;;;18.60;99.90;;;17.21;94.23;100066.59;4931290;29;20036;-79
2022/10/21 09:58:36;;;;;;;9.50;4.45;;;18.50;99.90;;;17.10;94.88;100067.69;4924486;29;20024;-81
2022/10/21 10:01:05;;;;;;;9.63;4.82;;;18.30;99.90;;;17.02;95.07;100054.47;4936230;29;20490;-83
2022/10/21 10:03:50;;;;;;;7.70;4.15;;;18.30;99.90;;;17.05;94.42;100070.44;4935509;28;20031;-83
2022/10/21 10:06:38;;;;;;;7.82;4.30;;;18.30;99.90;;;17.20;95.10;100083.41;4931739;29;20118;-82
2022/10/21 10:09:29;;;;;;;6.60;4.30;;;18.30;99.90;;;17.08;96.39;100078.16;4936278;29;20312;-83
2022/10/21 10:12:00;;;;;;;9.00;4.70;;;18.30;99.90;;;16.82;98.29;100076.19;4936769;29;20023;-85
2022/10/21 10:14:41;;;;;;;6.53;4.90;;;18.20;99.90;;;16.79;98.61;100076.72;4923032;28;20467;-85
2022/10/21 10:17:28;;;;;;;9.07;4.78;;;18.00;99.90;;;16.65;100.00;100081.09;4933645;29;20390;-84